Time;durP1;ratioP1;P1;durP2;ratioP2;P2;SDS_P1;SDS_P2;PMS_P1;PMS_P2;Temp;Humidity;BMP_temperature;BMP_pressure;BME280_temperature;BME280_humidity;BME280_pressure;Samples;Min_cycle;Max_cycle;Signal;HPM_P1;HPM_P2
2021/03/10 00:00:52;;;;;;;;;;;;;;;-2.09;60.87;96843.04;1683491;84;20757;-52
2021/03/10 00:03:19;;;;;;;;;;;;;;;-1.96;60.56;96836.02;1681992;84;20495;-50
2021/03/10 00:05:47;;;;;;;;;;;;;;;-1.87;60.44;96830.79;1688730;84;21228;-51
2021/03/10 00:08:14;;;;;;;;;;;;;;;-1.77;60.28;96831.91;1681192;84;20233;-52
2021/03/10 00:10:42;;;;;;;;;;;;;;;-1.68;60.18;96834.27;1691863;84;20245;-52
2021/03/10 00:13:09;;;;;;;;;;;;;;;-1.62;60.07;96824.44;1690320;83;20229;-52
2021/03/10 00:15:36;;;;;;;;;;;;;;;-1.63;60.13;96823.58;1693053;84;20233;-52
2021/03/10 00:18:04;;;;;;;;;;;;;;;-1.68;60.22;96822.41;1688118;84;22377;-51
2021/03/10 00:20:32;;;;;;;;;;;;;;;-1.75;60.66;96825.08;1694273;84;20225;-51
2021/03/10 00:22:59;;;;;;;;;;;;;;;-1.83;60.72;96827.75;1682468;84;20259;-51
2021/03/10 00:25:27;;;;;;;;;;;;;;;-1.75;60.95;96819.55;1689803;84;20240;-51
2021/03/10 00:27:54;;;;;;;;;;;;;;;-1.57;60.84;96814.56;1688446;83;21890;-51
2021/03/10 00:30:22;;;;;;;;;;;;;;;-1.42;60.56;96813.88;1700101;84;21216;-51
2021/03/10 00:32:50;;;;;;;;;;;;;;;-1.49;60.64;96813.16;1689895;84;20228;-52
2021/03/10 00:35:19;;;;;;;;;;;;;;;-1.54;60.95;96812.41;1684212;84;20227;-51
2021/03/10 00:37:46;;;;;;;;;;;;;;;-1.58;61.27;96801.86;1685535;84;20523;-51
2021/03/10 00:40:13;;;;;;;;;;;;;;;-1.81;61.67;96804.42;1696883;84;20228;-50
2021/03/10 00:42:40;;;;;;;;;;;;;;;-1.96;62.26;96803.41;1681680;84;21236;-50
2021/03/10 00:45:09;;;;;;;;;;;;;;;-2.00;62.88;96800.53;1687721;84;20221;-51
2021/03/10 00:47:36;;;;;;;;;;;;;;;-2.07;63.05;96792.16;1691977;84;20249;-52
2021/03/10 00:50:06;;;;;;;;;;;;;;;-2.13;63.21;96790.55;1695985;83;20273;-51
2021/03/10 00:52:33;;;;;;;;;;;;;;;-2.10;63.28;96789.23;1692441;84;20221;-51
2021/03/10 00:55:00;;;;;;;;;;;;;;;-1.96;63.35;96785.61;1685056;84;21221;-51
2021/03/10 00:57:28;;;;;;;;;;;;;;;-1.87;63.14;96783.73;1689324;84;20301;-51
2021/03/10 00:59:56;;;;;;;;;;;;;;;-1.79;62.89;96778.93;1685053;84;20227;-52
2021/03/10 01:02:23;;;;;;;;;;;;;;;-1.86;63.05;96776.94;1684085;84;20310;-51
2021/03/10 01:04:50;;;;;;;;;;;;;;;-1.90;63.33;96778.70;1676667;84;20491;-53
2021/03/10 01:07:17;;;;;;;;;;;;;;;-1.90;63.46;96768.53;1682770;84;21213;-52
2021/03/10 01:09:45;;;;;;;;;;;;;;;-1.82;63.50;96759.49;1689304;84;20287;-52
2021/03/10 01:12:13;;;;;;;;;;;;;;;-1.77;63.58;96760.69;1681115;84;20223;-53
2021/03/10 01:14:41;;;;;;;;;;;;;;;-1.86;64.14;96757.45;1683196;84;20247;-53
2021/03/10 01:17:08;;;;;;;;;;;;;;;-2.04;64.35;96757.34;1679144;84;20237;-53
2021/03/10 01:19:36;;;;;;;;;;;;;;;-2.12;64.95;96751.97;1678312;84;21226;-53
2021/03/10 01:22:03;;;;;;;;;;;;;;;-2.16;65.14;96753.73;1677372;84;20227;-51
2021/03/10 01:24:31;;;;;;;;;;;;;;;-2.18;65.61;96747.02;1683671;84;20500;-51
2021/03/10 01:27:00;;;;;;;;;;;;;;;-2.29;65.87;96749.29;1688872;84;20224;-50
2021/03/10 01:29:27;;;;;;;;;;;;;;;-2.36;66.21;96750.71;1684357;84;20292;-51
2021/03/10 01:31:54;;;;;;;;;;;;;;;-2.46;66.74;96742.40;1671435;84;21221;-51
2021/03/10 01:34:22;;;;;;;;;;;;;;;-2.46;66.72;96743.23;1679056;84;20497;-53
2021/03/10 01:36:49;;;;;;;;;;;;;;;-2.40;66.74;96741.03;1685864;84;20282;-51
2021/03/10 01:39:16;;;;;;;;;;;;;;;-2.43;66.93;96734.28;1688753;84;20287;-51
2021/03/10 01:41:43;;;;;;;;;;;;;;;-2.50;66.96;96727.64;1682628;84;21715;-52
2021/03/10 01:44:14;;;;;;;;;;;;;;;-2.49;67.01;96729.30;1682463;84;21401;-51
2021/03/10 01:46:41;;;;;;;;;;;;;;;-2.49;66.90;96724.66;1685590;84;20620;-50
2021/03/10 01:49:09;;;;;;;;;;;;;;;-2.47;67.12;96722.92;1658412;84;20226;-51
2021/03/10 01:51:37;;;;;;;;;;;;;;;-2.51;67.36;96714.96;1676618;84;20218;-51
2021/03/10 01:54:05;;;;;;;;;;;;;;;-2.64;67.76;96718.96;1678374;84;20250;-52
2021/03/10 01:56:31;;;;;;;;;;;;;;;-2.74;68.32;96714.07;1658154;84;21165;-51
2021/03/10 01:58:59;;;;;;;;;;;;;;;-2.80;68.43;96706.96;1692993;84;20225;-51
2021/03/10 02:01:26;;;;;;;;;;;;;;;-2.77;68.49;96708.16;1694134;84;20280;-52
2021/03/10 02:03:53;;;;;;;;;;;;;;;-2.67;68.29;96706.30;1686022;84;20246;-52
2021/03/10 02:06:31;;;;;;;;;;;;;;;-2.61;68.10;96704.11;1688328;84;21879;-51
2021/03/10 02:09:04;;;;;;;;;;;;;;;-2.46;67.90;96701.30;1683177;84;22259;-52
2021/03/10 02:11:45;;;;;;;;;;;;;;;-2.38;67.48;96699.08;1688763;84;20217;-52
2021/03/10 02:14:21;;;;;;;;;;;;;;;-2.39;67.36;96692.31;1688936;84;20216;-52
2021/03/10 02:16:51;;;;;;;;;;;;;;;-2.44;67.40;96693.66;1688100;84;20661;-52
2021/03/10 02:19:37;;;;;;;;;;;;;;;-2.44;67.59;96697.47;1695775;84;20225;-52
2021/03/10 02:22:25;;;;;;;;;;;;;;;-2.49;67.60;96692.91;1688171;84;21383;-51
2021/03/10 02:25:13;;;;;;;;;;;;;;;-2.57;67.72;96690.92;1680981;84;20221;-52
2021/03/10 02:27:46;;;;;;;;;;;;;;;-2.58;67.83;96690.09;1679402;84;20229;-51
2021/03/10 02:30:21;;;;;;;;;;;;;;;-2.53;67.71;96687.04;1695386;84;21998;-51
2021/03/10 02:32:59;;;;;;;;;;;;;;;-2.52;67.72;96688.70;1697984;83;20224;-51
2021/03/10 02:35:27;;;;;;;;;;;;;;;-2.56;67.87;96688.80;1690593;84;22202;-51
2021/03/10 02:38:02;;;;;;;;;;;;;;;-2.59;67.92;96693.05;1696542;84;20225;-51
2021/03/10 02:40:30;;;;;;;;;;;;;;;-2.49;67.92;96692.91;1697771;84;20505;-50
2021/03/10 02:42:57;;;;;;;;;;;;;;;-2.37;67.62;96696.48;1693279;84;20610;-51
2021/03/10 02:45:26;;;;;;;;;;;;;;;-2.42;67.47;96692.78;1697670;84;20276;-51
2021/03/10 02:47:55;;;;;;;;;;;;;;;-2.41;67.54;96682.17;1676526;84;21228;-51
2021/03/10 02:50:23;;;;;;;;;;;;;;;-2.44;67.51;96686.03;1649559;84;20236;-51
2021/03/10 02:52:50;;;;;;;;;;;;;;;-2.51;67.68;96680.22;1671645;84;20496;-50
2021/03/10 02:55:17;;;;;;;;;;;;;;;-2.59;67.87;96679.52;1692538;84;20229;-52
2021/03/10 02:57:45;;;;;;;;;;;;;;;-2.67;68.08;96677.53;1682624;84;21852;-51
2021/03/10 03:00:15;;;;;;;;;;;;;;;-2.73;68.44;96675.95;1690518;83;22281;-51
2021/03/10 03:02:42;;;;;;;;;;;;;;;-2.79;68.64;96674.33;1674659;84;20246;-51
2021/03/10 03:05:11;;;;;;;;;;;;;;;-2.84;68.94;96679.09;1679632;84;20303;-50
2021/03/10 03:07:39;;;;;;;;;;;;;;;-2.86;68.92;96676.98;1684327;83;20245;-51
2021/03/10 03:10:16;;;;;;;;;;;;;;;-2.80;69.02;96674.35;1680316;85;20248;-52
2021/03/10 03:12:43;;;;;;;;;;;;;;;-2.76;68.85;96674.73;1687142;84;21398;-53
2021/03/10 03:15:17;;;;;;;;;;;;;;;-2.73;68.74;96675.09;1674257;84;20217;-52
2021/03/10 03:17:45;;;;;;;;;;;;;;;-2.72;68.76;96671.70;1648498;85;20291;-53
2021/03/10 03:20:14;;;;;;;;;;;;;;;-2.72;68.79;96671.70;1687399;84;20229;-54
2021/03/10 03:22:47;;;;;;;;;;;;;;;-2.78;68.84;96666.27;1685788;84;20244;-51
2021/03/10 03:25:16;;;;;;;;;;;;;;;-2.78;68.91;96667.54;1685736;84;22455;-51
2021/03/10 03:27:46;;;;;;;;;;;;;;;-2.82;68.98;96665.48;1689766;84;20297;-50
2021/03/10 03:30:14;;;;;;;;;;;;;;;-2.84;69.17;96665.13;1693937;84;20497;-52
2021/03/10 03:32:42;;;;;;;;;;;;;;;-2.91;69.47;96658.45;1686787;84;20305;-52
2021/03/10 03:35:10;;;;;;;;;;;;;;;-3.00;69.65;96655.64;1681664;84;20240;-52
2021/03/10 03:37:39;;;;;;;;;;;;;;;-3.02;69.80;96661.17;1682584;83;21239;-51
2021/03/10 03:40:09;;;;;;;;;;;;;;;-3.07;70.07;96657.44;1683652;84;20230;-51
2021/03/10 03:42:36;;;;;;;;;;;;;;;-3.08;70.21;96654.48;1684994;84;20254;-52
2021/03/10 03:45:05;;;;;;;;;;;;;;;-3.08;70.40;96649.40;1683678;84;20237;-51
2021/03/10 03:47:33;;;;;;;;;;;;;;;-3.10;70.54;96656.20;1683239;84;20226;-51
2021/03/10 03:50:00;;;;;;;;;;;;;;;-3.18;70.60;96651.68;1670078;83;21683;-51
2021/03/10 03:52:29;;;;;;;;;;;;;;;-3.23;70.85;96649.20;1678826;84;20635;-52
2021/03/10 03:54:57;;;;;;;;;;;;;;;-3.26;71.07;96647.15;1686012;84;20221;-51
2021/03/10 03:57:24;;;;;;;;;;;;;;;-3.29;71.32;96652.27;1675571;83;20229;-52
2021/03/10 03:59:51;;;;;;;;;;;;;;;-3.33;71.48;96639.63;1675771;84;20246;-50
2021/03/10 04:02:18;;;;;;;;;;;;;;;-3.36;71.58;96640.10;1681732;84;21207;-50
2021/03/10 04:04:46;;;;;;;;;;;;;;;-3.39;71.76;96637.61;1688109;84;20278;-51
2021/03/10 04:07:13;;;;;;;;;;;;;;;-3.42;71.78;96641.05;1693337;83;20232;-51
2021/03/10 04:09:41;;;;;;;;;;;;;;;-3.45;71.90;96637.28;1694669;84;20216;-52
2021/03/10 04:12:09;;;;;;;;;;;;;;;-3.45;71.82;96643.62;1687579;84;21870;-50
2021/03/10 04:14:38;;;;;;;;;;;;;;;-3.42;71.90;96646.53;1678076;84;20274;-50
2021/03/10 04:17:05;;;;;;;;;;;;;;;-3.41;71.83;96645.23;1696100;83;20229;-51
2021/03/10 04:19:32;;;;;;;;;;;;;;;-3.41;71.80;96644.41;1660447;83;20495;-51
2021/03/10 04:22:00;;;;;;;;;;;;;;;-3.41;71.73;96649.05;1682269;84;20311;-52
2021/03/10 04:24:27;;;;;;;;;;;;;;;-3.35;71.74;96643.06;1685460;84;22002;-51
2021/03/10 04:26:54;;;;;;;;;;;;;;;-3.22;71.64;96637.38;1698964;84;21394;-51
2021/03/10 04:29:21;;;;;;;;;;;;;;;-2.99;71.38;96637.02;1656183;84;20223;-50
2021/03/10 04:31:48;;;;;;;;;;;;;;;-2.70;70.77;96636.94;1692149;83;20221;-50
2021/03/10 04:34:16;;;;;;;;;;;;;;;-2.46;70.00;96628.88;1692099;84;22054;-50
2021/03/10 04:36:43;;;;;;;;;;;;;;;-2.20;69.26;96634.33;1692340;84;20524;-51
2021/03/10 04:39:11;;;;;;;;;;;;;;;-1.97;68.65;96625.01;1679307;84;21121;-51
2021/03/10 04:41:38;;;;;;;;;;;;;;;-1.72;67.96;96627.88;1694054;84;20232;-51
2021/03/10 04:44:07;;;;;;;;;;;;;;;-1.51;67.09;96631.66;1680698;84;20274;-51
2021/03/10 04:46:34;;;;;;;;;;;;;;;-1.35;66.35;96624.09;1689376;83;20508;-51
2021/03/10 04:49:01;;;;;;;;;;;;;;;-1.16;65.74;96627.03;1684344;83;20252;-52
2021/03/10 04:51:29;;;;;;;;;;;;;;;-1.01;64.99;96628.81;1688810;84;21275;-52
2021/03/10 04:53:57;;;;;;;;;;;;;;;-0.91;64.33;96626.89;1687165;83;20244;-51
2021/03/10 04:56:24;;;;;;;;;;;;;;;-0.85;63.80;96626.30;1679840;84;20228;-51
2021/03/10 04:58:51;;;;;;;;;;;;;;;-0.81;63.65;96627.05;1693289;84;22002;-51
2021/03/10 05:01:18;;;;;;;;;;;;;;;-0.73;63.11;96628.97;1684378;84;20295;-51
2021/03/10 05:03:45;;;;;;;;;;;;;;;-0.82;62.80;96634.31;1674774;83;21462;-51
2021/03/10 05:06:13;;;;;;;;;;;;;;;-1.01;63.29;96628.38;1671433;84;20219;-52
2021/03/10 05:08:42;;;;;;;;;;;;;;;-0.95;63.59;96629.95;1661915;85;20323;-51
2021/03/10 05:11:10;;;;;;;;;;;;;;;-0.83;63.23;96621.99;1686482;84;20233;-51
2021/03/10 05:13:38;;;;;;;;;;;;;;;-0.75;62.85;96620.53;1666340;84;20260;-51
2021/03/10 05:16:05;;;;;;;;;;;;;;;-0.72;62.74;96623.42;1685125;84;21023;-51
2021/03/10 05:18:33;;;;;;;;;;;;;;;-0.65;62.57;96624.97;1662834;86;20235;-50
2021/03/10 05:21:00;;;;;;;;;;;;;;;-0.57;62.57;96623.06;1664667;84;20216;-49
2021/03/10 05:23:27;;;;;;;;;;;;;;;-0.44;62.32;96616.76;1693792;83;20229;-51
2021/03/10 05:25:54;;;;;;;;;;;;;;;-0.33;62.05;96617.77;1678094;84;20521;-50
2021/03/10 05:28:21;;;;;;;;;;;;;;;-0.17;61.72;96617.34;1688020;83;22797;-50
2021/03/10 05:30:48;;;;;;;;;;;;;;;-0.05;61.27;96619.11;1697171;83;20224;-50
2021/03/10 05:33:16;;;;;;;;;;;;;;;-0.02;61.05;96620.31;1663711;84;20302;-50
2021/03/10 05:35:43;;;;;;;;;;;;;;;0.07;60.88;96623.48;1681417;84;20280;-50
2021/03/10 05:38:10;;;;;;;;;;;;;;;0.14;60.72;96620.69;1691263;84;20228;-51
2021/03/10 05:40:38;;;;;;;;;;;;;;;0.22;60.61;96621.75;1676426;84;22239;-50
2021/03/10 05:43:06;;;;;;;;;;;;;;;0.29;60.22;96623.23;1681787;84;20278;-50
2021/03/10 05:45:33;;;;;;;;;;;;;;;0.31;60.08;96621.91;1673497;83;20331;-50
2021/03/10 05:48:00;;;;;;;;;;;;;;;0.35;59.92;96622.23;1656891;86;20252;-50
2021/03/10 05:50:28;;;;;;;;;;;;;;;0.40;59.86;96621.66;1686942;83;20522;-50
2021/03/10 05:52:55;;;;;;;;;;;;;;;0.38;59.52;96625.98;1662786;85;21992;-49
2021/03/10 05:55:23;;;;;;;;;;;;;;;0.32;59.57;96634.64;1666289;84;20223;-50
2021/03/10 05:57:50;;;;;;;;;;;;;;;0.35;59.75;96631.17;1676281;84;20689;-49
2021/03/10 06:00:18;;;;;;;;;;;;;;;0.35;59.57;96630.72;1691785;83;20245;-49
2021/03/10 06:02:46;;;;;;;;;;;;;;;0.27;59.55;96626.28;1668089;84;20277;-50
2021/03/10 06:05:20;;;;;;;;;;;;;;;0.15;60.19;96629.20;1670842;83;22291;-50
2021/03/10 06:08:01;;;;;;;;;;;;;;;0.21;60.16;96625.17;1683152;83;20229;-49
2021/03/10 06:10:45;;;;;;;;;;;;;;;0.11;60.42;96624.59;1672700;83;20293;-50
2021/03/10 06:13:22;;;;;;;;;;;;;;;-0.21;61.14;96635.72;1674183;83;20287;-51
2021/03/10 06:15:50;;;;;;;;;;;;;;;-0.79;63.21;96633.80;1677930;83;20224;-50
2021/03/10 06:18:36;;;;;;;;;;;;;;;-1.14;64.88;96638.01;1675283;84;21209;-49
2021/03/10 06:21:09;;;;;;;;;;;;;;;-1.43;65.54;96642.92;1688670;82;20511;-49
2021/03/10 06:23:53;;;;;;;;;;;;;;;-1.58;66.82;96639.02;1687969;83;20551;-51
2021/03/10 06:26:22;;;;;;;;;;;;;;;-1.70;66.90;96642.22;1697332;82;20222;-49
2021/03/10 06:28:49;;;;;;;;;;;;;;;-1.60;67.48;96643.30;1688915;83;20214;-49
2021/03/10 06:31:22;;;;;;;;;;;;;;;-1.52;67.30;96648.63;1677062;84;21212;-50
2021/03/10 06:34:04;;;;;;;;;;;;;;;-1.60;67.12;96645.41;1680044;83;20218;-50
2021/03/10 06:36:33;;;;;;;;;;;;;;;-1.65;67.61;96647.66;1677563;83;20226;-50
2021/03/10 06:39:04;;;;;;;;;;;;;;;-1.60;67.62;96653.48;1688601;83;20702;-49
2021/03/10 06:41:36;;;;;;;;;;;;;;;-1.39;67.16;96652.19;1670765;84;20238;-49
2021/03/10 06:44:16;;;;;;;;;;;;;;;-1.34;66.78;96656.73;1672032;83;22214;-50
2021/03/10 06:46:59;;;;;;;;;;;;;;;-1.46;66.94;96669.30;1676059;83;20216;-51
2021/03/10 06:49:31;;;;;;;;;;;;;;;-1.58;67.13;96668.27;1679912;83;20232;-50
2021/03/10 06:52:00;;;;;;;;;;;;;;;-1.60;67.56;96668.30;1677032;83;20228;-49
2021/03/10 06:54:29;;;;;;;;;;;;;;;-1.67;67.70;96672.69;1678659;84;20521;-49
2021/03/10 06:57:00;;;;;;;;;;;;;;;-1.58;67.78;96672.09;1688313;83;21217;-49
2021/03/10 06:59:41;;;;;;;;;;;;;;;-1.59;67.55;96669.98;1687890;83;20222;-50
2021/03/10 07:02:17;;;;;;;;;;;;;;;-1.63;67.63;96664.55;1680881;84;20512;-49
2021/03/10 07:04:46;;;;;;;;;;;;;;;-1.58;67.81;96670.81;1690290;83;20641;-51
2021/03/10 07:07:14;;;;;;;;;;;;;;;-1.58;67.69;96672.95;1686294;83;20217;-49
2021/03/10 07:09:41;;;;;;;;;;;;;;;-1.60;67.94;96675.11;1693987;83;21218;-49
2021/03/10 07:12:11;;;;;;;;;;;;;;;-1.55;68.01;96675.84;1677121;83;20228;-50
2021/03/10 07:14:38;;;;;;;;;;;;;;;-1.42;67.68;96674.71;1680534;84;20216;-49
2021/03/10 07:17:08;;;;;;;;;;;;;;;-1.26;67.54;96680.76;1678022;83;20564;-48
2021/03/10 07:19:36;;;;;;;;;;;;;;;-1.07;67.08;96682.02;1687891;83;20486;-48
2021/03/10 07:22:19;;;;;;;;;;;;;;;-1.03;66.53;96677.69;1684311;83;21177;-50
2021/03/10 07:25:01;;;;;;;;;;;;;;;-1.14;66.98;96681.30;1696008;83;20317;-49
2021/03/10 07:27:46;;;;;;;;;;;;;;;-1.23;66.77;96674.33;1690318;83;20226;-47
2021/03/10 07:30:15;;;;;;;;;;;;;;;-1.23;66.79;96673.88;1679842;84;20314;-50
2021/03/10 07:32:42;;;;;;;;;;;;;;;-1.18;66.81;96683.52;1681919;83;20313;-50
2021/03/10 07:35:11;;;;;;;;;;;;;;;-1.17;66.72;96677.58;1690752;83;21229;-49
2021/03/10 07:37:42;;;;;;;;;;;;;;;-1.27;67.17;96676.08;1681165;83;20585;-49
2021/03/10 07:40:14;;;;;;;;;;;;;;;-1.38;67.25;96676.34;1684639;83;20272;-49
2021/03/10 07:42:55;;;;;;;;;;;;;;;-1.51;67.83;96681.29;1687528;83;20324;-50
2021/03/10 07:45:26;;;;;;;;;;;;;;;-1.60;68.21;96681.03;1682051;83;20297;-50
2021/03/10 07:47:55;;;;;;;;;;;;;;;-1.57;68.27;96682.69;1683157;84;22137;-50
2021/03/10 07:50:43;;;;;;;;;;;;;;;-1.43;68.38;96684.92;1687871;84;20232;-51
2021/03/10 07:53:10;;;;;;;;;;;;;;;-1.13;67.58;96679.16;1680354;83;20221;-52
2021/03/10 07:55:48;;;;;;;;;;;;;;;-0.87;66.78;96673.91;1683867;83;20238;-52
2021/03/10 07:58:29;;;;;;;;;;;;;;;-0.76;65.86;96672.36;1686174;83;20225;-53
2021/03/10 08:00:58;;;;;;;;;;;;;;;-0.87;65.77;96675.19;1687583;84;21216;-52
2021/03/10 08:03:28;;;;;;;;;;;;;;;-0.87;65.89;96670.09;1687772;84;20487;-53
2021/03/10 08:06:01;;;;;;;;;;;;;;;-0.82;66.10;96672.09;1684533;83;20284;-53
2021/03/10 08:08:35;;;;;;;;;;;;;;;-0.54;65.25;96667.59;1692822;83;20229;-53
2021/03/10 08:11:17;;;;;;;;;;;;;;;-0.43;64.22;96658.38;1678518;83;20231;-52
2021/03/10 08:13:44;;;;;;;;;;;;;;;-0.35;64.13;96665.83;1680510;84;21384;-53
2021/03/10 08:16:12;;;;;;;;;;;;;;;-0.26;63.24;96665.61;1685789;83;20214;-52
2021/03/10 08:18:45;;;;;;;;;;;;;;;-0.32;63.14;96661.94;1681081;84;20222;-53
2021/03/10 08:21:16;;;;;;;;;;;;;;;-0.45;63.47;96663.95;1685718;83;20355;-53
2021/03/10 08:23:43;;;;;;;;;;;;;;;-0.40;63.82;96667.22;1689854;84;20259;-52
2021/03/10 08:26:11;;;;;;;;;;;;;;;-0.22;63.51;96665.91;1683605;84;21130;-52
2021/03/10 08:28:39;;;;;;;;;;;;;;;-0.12;63.13;96666.50;1678347;83;20248;-53
2021/03/10 08:31:08;;;;;;;;;;;;;;;-0.10;62.83;96674.94;1688946;83;20557;-52
2021/03/10 08:33:51;;;;;;;;;;;;;;;-0.11;63.06;96677.11;1688649;83;20273;-54
2021/03/10 08:36:33;;;;;;;;;;;;;;;-0.12;63.23;96681.36;1683062;83;20226;-53
2021/03/10 08:39:10;;;;;;;;;;;;;;;-0.10;62.70;96674.52;1685617;83;21125;-53
2021/03/10 08:41:45;;;;;;;;;;;;;;;-0.13;62.73;96671.19;1688919;83;20225;-52
2021/03/10 08:44:13;;;;;;;;;;;;;;;-0.20;62.88;96665.42;1671231;84;20231;-52
2021/03/10 08:46:41;;;;;;;;;;;;;;;-0.22;63.09;96665.91;1675047;83;20228;-53
2021/03/10 08:49:27;;;;;;;;;;;;;;;-0.15;63.01;96667.85;1685413;83;20221;-53
2021/03/10 08:52:13;;;;;;;;;;;;;;;0.02;62.55;96668.25;1693653;83;21284;-52
2021/03/10 08:54:45;;;;;;;;;;;;;;;0.13;62.30;96668.80;1676032;83;20235;-53
2021/03/10 08:57:12;;;;;;;;;;;;;;;0.14;61.92;96661.52;1693405;83;20225;-53
2021/03/10 08:59:41;;;;;;;;;;;;;;;0.09;61.95;96664.64;1680855;83;20521;-52
2021/03/10 09:02:11;;;;;;;;;;;;;;;0.02;62.30;96661.02;1684018;85;20230;-52
2021/03/10 09:04:47;;;;;;;;;;;;;;;0.18;62.22;96666.09;1678859;83;21172;-53
2021/03/10 09:07:17;;;;;;;;;;;;;;;0.38;62.27;96662.13;1684156;84;20749;-52
2021/03/10 09:09:44;;;;;;;;;;;;;;;0.54;61.19;96659.53;1694885;84;20226;-52
2021/03/10 09:12:13;;;;;;;;;;;;;;;0.47;61.56;96661.43;1663591;85;20222;-53
2021/03/10 09:14:42;;;;;;;;;;;;;;;0.44;61.62;96660.23;1685814;83;20352;-52
2021/03/10 09:17:13;;;;;;;;;;;;;;;0.32;62.27;96662.71;1692791;83;21392;-53
2021/03/10 09:19:47;;;;;;;;;;;;;;;0.14;62.93;96673.00;1686784;84;20574;-53
2021/03/10 09:22:20;;;;;;;;;;;;;;;0.09;62.93;96673.56;1689469;83;20541;-52
2021/03/10 09:24:59;;;;;;;;;;;;;;;0.02;63.28;96672.08;1672341;84;20782;-53
2021/03/10 09:27:28;;;;;;;;;;;;;;;0.16;63.19;96667.85;1660031;85;20249;-53
2021/03/10 09:29:59;;;;;;;;;;;;;;;0.27;63.30;96668.84;1684485;83;39347;-52
2021/03/10 09:32:28;;;;;;;;;;;;;;;0.40;62.73;96676.98;1687588;84;20581;-52
2021/03/10 09:34:55;;;;;;;;;;;;;;;0.46;62.55;96676.38;1666853;85;20253;-52
2021/03/10 09:37:25;;;;;;;;;;;;;;;0.65;62.27;96677.10;1684865;84;20595;-53
2021/03/10 09:39:53;;;;;;;;;;;;;;;0.80;61.49;96673.25;1690036;84;20213;-51
2021/03/10 09:42:29;;;;;;;;;;;;;;;0.79;61.53;96672.42;1675884;84;22002;-54
2021/03/10 09:44:59;;;;;;;;;;;;;;;0.85;61.25;96672.21;1678701;84;20494;-54
2021/03/10 09:47:28;;;;;;;;;;;;;;;0.85;61.20;96673.94;1683941;84;20223;-53
2021/03/10 09:49:58;;;;;;;;;;;;;;;1.00;61.55;96674.73;1663537;86;20240;-53
2021/03/10 09:52:33;;;;;;;;;;;;;;;1.12;60.88;96677.80;1676610;85;20274;-53
2021/03/10 09:55:01;;;;;;;;;;;;;;;1.09;60.79;96676.19;1669595;85;21228;-53
2021/03/10 09:57:31;;;;;;;;;;;;;;;1.02;61.46;96674.69;1691322;84;20218;-53
2021/03/10 09:59:59;;;;;;;;;;;;;;;1.14;61.38;96678.61;1662953;86;20234;-53
2021/03/10 10:02:31;;;;;;;;;;;;;;;1.33;61.34;96676.28;1634945;87;20245;-51
2021/03/10 10:05:01;;;;;;;;;;;;;;;1.55;60.85;96674.70;1650814;85;20521;-52
2021/03/10 10:07:30;;;;;;;;;;;;;;;1.73;59.51;96673.70;1662253;86;21542;-53
2021/03/10 10:10:06;;;;;;;;;;;;;;;1.84;59.74;96680.53;1674662;83;20218;-53
2021/03/10 10:12:43;;;;;;;;;;;;;;;2.03;59.29;96680.75;1660298;85;20222;-53
2021/03/10 10:15:12;;;;;;;;;;;;;;;2.17;58.96;96678.54;1662238;86;20219;-52
2021/03/10 10:17:50;;;;;;;;;;;;;;;2.30;58.73;96683.20;1672650;85;20244;-52
2021/03/10 10:20:19;;;;;;;;;;;;;;;2.43;58.30;96692.11;1679063;85;21636;-52
2021/03/10 10:22:47;;;;;;;;;;;;;;;2.60;57.87;96686.81;1679665;85;20542;-52
2021/03/10 10:25:17;;;;;;;;;;;;;;;2.71;57.45;96699.64;1679648;85;20254;-52
2021/03/10 10:27:46;;;;;;;;;;;;;;;2.80;57.25;96698.45;1679604;85;20294;-52
2021/03/10 10:30:15;;;;;;;;;;;;;;;2.88;57.02;96701.55;1680392;84;20266;-52
2021/03/10 10:32:43;;;;;;;;;;;;;;;2.97;56.86;96700.81;1655434;86;21215;-52
2021/03/10 10:35:12;;;;;;;;;;;;;;;3.04;56.65;96699.67;1676489;85;20627;-52
2021/03/10 10:37:39;;;;;;;;;;;;;;;3.13;56.69;96701.44;1677955;83;20227;-52
2021/03/10 10:40:11;;;;;;;;;;;;;;;3.19;56.72;96700.80;1670225;85;20570;-52
2021/03/10 10:42:39;;;;;;;;;;;;;;;3.24;56.77;96698.89;1688117;84;20225;-52
2021/03/10 10:45:08;;;;;;;;;;;;;;;3.27;56.60;96702.19;1679122;85;22315;-52
2021/03/10 10:47:35;;;;;;;;;;;;;;;3.31;56.73;96701.16;1679657;85;20306;-52
2021/03/10 10:50:10;;;;;;;;;;;;;;;3.38;56.51;96706.05;1660191;83;20245;-52
2021/03/10 10:52:38;;;;;;;;;;;;;;;3.39;56.15;96707.70;1650848;87;20249;-52
2021/03/10 10:55:11;;;;;;;;;;;;;;;3.37;56.35;96705.23;1650835;87;20313;-53
2021/03/10 10:57:39;;;;;;;;;;;;;;;3.40;56.38;96700.41;1654487;84;21273;-53
2021/03/10 11:00:09;;;;;;;;;;;;;;;3.45;56.39;96699.34;1672640;84;20224;-52
2021/03/10 11:02:36;;;;;;;;;;;;;;;3.50;56.30;96696.14;1665695;86;20287;-52
2021/03/10 11:05:08;;;;;;;;;;;;;;;3.56;56.12;96698.89;1665606;84;20227;-53
2021/03/10 11:07:35;;;;;;;;;;;;;;;3.58;55.97;96701.39;1665817;85;20515;-52
2021/03/10 11:10:05;;;;;;;;;;;;;;;3.58;55.68;96696.26;1678554;84;21626;-52
2021/03/10 11:12:33;;;;;;;;;;;;;;;3.50;55.83;96695.28;1693333;84;20587;-53
2021/03/10 11:15:03;;;;;;;;;;;;;;;3.41;55.72;96696.50;1693577;84;20246;-52
2021/03/10 11:17:32;;;;;;;;;;;;;;;3.37;56.05;96691.12;1692627;84;20232;-53
2021/03/10 11:20:00;;;;;;;;;;;;;;;3.40;56.29;96688.86;1693652;84;20226;-52
2021/03/10 11:22:30;;;;;;;;;;;;;;;3.45;56.41;96685.66;1680481;84;21392;-53
2021/03/10 11:24:57;;;;;;;;;;;;;;;3.50;56.37;96687.58;1667455;84;20587;-53
2021/03/10 11:27:25;;;;;;;;;;;;;;;3.56;56.31;96687.34;1693665;84;20221;-53
2021/03/10 11:29:53;;;;;;;;;;;;;;;3.58;56.37;96687.28;1693448;84;20209;-53
2021/03/10 11:32:21;;;;;;;;;;;;;;;3.56;56.29;96695.04;1693549;84;20246;-53
2021/03/10 11:34:48;;;;;;;;;;;;;;;3.47;56.26;96694.12;1693621;84;21166;-53
2021/03/10 11:37:17;;;;;;;;;;;;;;;3.37;56.53;96691.12;1698595;84;20473;-52
2021/03/10 11:39:45;;;;;;;;;;;;;;;3.34;56.56;96692.95;1701336;84;20225;-53
2021/03/10 11:42:14;;;;;;;;;;;;;;;3.29;56.59;96689.31;1701365;84;20238;-53
2021/03/10 11:44:41;;;;;;;;;;;;;;;3.25;56.78;96683.90;1692147;84;20489;-52
2021/03/10 11:47:09;;;;;;;;;;;;;;;3.24;56.93;96682.22;1693101;83;22094;-51
2021/03/10 11:49:38;;;;;;;;;;;;;;;3.29;57.05;96681.16;1693480;84;20230;-52
2021/03/10 11:52:07;;;;;;;;;;;;;;;3.39;57.04;96684.62;1693581;83;20246;-52
2021/03/10 11:54:35;;;;;;;;;;;;;;;3.46;56.83;96683.03;1687575;84;20231;-54
2021/03/10 11:57:03;;;;;;;;;;;;;;;3.51;56.76;96681.56;1665671;86;20535;-52
2021/03/10 11:59:30;;;;;;;;;;;;;;;3.56;56.73;96681.39;1687848;84;21222;-51
2021/03/10 12:02:02;;;;;;;;;;;;;;;3.63;56.67;96681.51;1692726;84;20288;-52
2021/03/10 12:04:32;;;;;;;;;;;;;;;3.66;56.51;96679.64;1693244;84;20259;-53
2021/03/10 12:07:00;;;;;;;;;;;;;;;3.69;56.33;96677.41;1694269;84;20242;-52
2021/03/10 12:09:28;;;;;;;;;;;;;;;3.68;56.22;96677.02;1701353;84;20241;-52
2021/03/10 12:11:55;;;;;;;;;;;;;;;3.68;55.95;96675.30;1698490;84;21288;-52
2021/03/10 12:14:25;;;;;;;;;;;;;;;3.69;55.74;96677.41;1672357;84;20516;-52
2021/03/10 12:16:52;;;;;;;;;;;;;;;3.68;55.69;96680.44;1665597;84;20224;-54
2021/03/10 12:19:21;;;;;;;;;;;;;;;3.64;55.63;96674.20;1667493;84;20227;-53
2021/03/10 12:21:48;;;;;;;;;;;;;;;3.58;55.83;96682.98;1665642;86;20252;-53
2021/03/10 12:24:15;;;;;;;;;;;;;;;3.55;56.00;96677.14;1665655;86;21445;-54
2021/03/10 12:26:43;;;;;;;;;;;;;;;3.51;56.11;96680.28;1665609;86;20235;-52
2021/03/10 12:29:11;;;;;;;;;;;;;;;3.38;56.45;96677.37;1665893;84;20228;-52
2021/03/10 12:31:39;;;;;;;;;;;;;;;3.28;56.83;96683.78;1665612;86;20235;-52
2021/03/10 12:34:08;;;;;;;;;;;;;;;3.23;57.19;96688.27;1665686;86;20519;-52
2021/03/10 12:36:36;;;;;;;;;;;;;;;3.21;57.23;96681.09;1667070;84;21652;-53
2021/03/10 12:39:05;;;;;;;;;;;;;;;3.21;57.29;96679.80;1693468;84;20229;-52
2021/03/10 12:41:32;;;;;;;;;;;;;;;3.19;57.44;96687.55;1671415;84;20227;-53
2021/03/10 12:44:01;;;;;;;;;;;;;;;3.19;57.51;96684.99;1682396;83;20253;-53
2021/03/10 12:46:31;;;;;;;;;;;;;;;3.18;57.55;96679.92;1693325;84;20522;-53
2021/03/10 12:48:58;;;;;;;;;;;;;;;3.12;57.66;96680.55;1693576;84;21422;-54
2021/03/10 12:51:25;;;;;;;;;;;;;;;3.13;57.68;96681.38;1690257;84;21251;-52
2021/03/10 12:53:54;;;;;;;;;;;;;;;3.14;57.67;96681.75;1665497;86;20232;-53
2021/03/10 12:56:22;;;;;;;;;;;;;;;3.13;57.74;96681.38;1687305;83;20228;-52
2021/03/10 12:58:50;;;;;;;;;;;;;;;3.10;58.03;96681.04;1677423;84;20243;-52
2021/03/10 13:01:17;;;;;;;;;;;;;;;3.11;58.15;96684.45;1671168;84;21434;-52
2021/03/10 13:03:45;;;;;;;;;;;;;;;3.11;58.21;96679.33;1684597;85;20222;-52